Time;durP1;ratioP1;P1;durP2;ratioP2;P2;SDS_P1;SDS_P2;PMS_P1;PMS_P2;Temp;Humidity;BMP_temperature;BMP_pressure;BME280_temperature;BME280_humidity;BME280_pressure;Samples;Min_cycle;Max_cycle;Signal;HPM_P1;HPM_P2
2023/05/04 00:01:44;;;;;;;;;;;12.50;99.90;;;;;;5093176;28;20059;-86
2023/05/04 00:04:10;;;;;;;3.33;2.47;;;12.50;99.90;;;;;;5092560;28;20429;-86
2023/05/04 00:06:36;;;;;;;5.15;2.78;;;12.50;99.90;;;;;;5092412;28;20059;-87
2023/05/04 00:09:02;;;;;;;;;;;12.40;99.90;;;;;;5092468;28;20019;-86
2023/05/04 00:11:28;;;;;;;3.60;2.08;;;12.40;99.90;;;;;;5092173;28;19904;-86
2023/05/04 00:13:53;;;;;;;;;;;12.40;99.90;;;;;;5092539;28;20031;-86
2023/05/04 00:16:20;;;;;;;7.10;2.50;;;12.30;99.90;;;;;;5092146;28;19904;-87
2023/05/04 00:18:45;;;;;;;8.02;2.60;;;12.30;99.90;;;;;;5092176;28;20039;-87
2023/05/04 00:21:11;;;;;;;;;;;12.30;99.90;;;;;;5092405;28;20036;-87
2023/05/04 00:23:36;;;;;;;3.60;1.98;;;12.30;99.90;;;;;;5091633;28;19904;-86
2023/05/04 00:26:02;;;;;;;;;;;12.30;99.90;;;;;;5091570;28;20031;-87
2023/05/04 00:28:28;;;;;;;3.22;2.33;;;12.30;99.90;;;;;;5091365;28;19908;-85
2023/05/04 00:30:54;;;;;;;;;;;12.30;99.90;;;;;;5092385;28;20024;-86
2023/05/04 00:33:20;;;;;;;4.18;2.28;;;12.30;99.90;;;;;;5093319;28;19911;-87
2023/05/04 00:35:46;;;;;;;2.88;1.80;;;12.30;99.90;;;;;;5090539;28;20031;-87
2023/05/04 00:38:12;;;;;;;;;;;12.40;99.90;;;;;;5092432;28;20476;-87
2023/05/04 00:40:41;;;;;;;3.30;2.15;;;12.40;99.90;;;;;;5088852;28;19926;-86
2023/05/04 00:43:07;;;;;;;4.22;2.20;;;12.40;99.90;;;;;;5090653;28;20065;-87
2023/05/04 00:45:33;;;;;;;;;;;12.40;99.90;;;;;;5093377;28;20490;-87
2023/05/04 00:47:58;;;;;;;3.72;2.80;;;12.40;99.90;;;;;;5091936;28;19904;-86
2023/05/04 00:50:25;;;;;;;;;;;12.40;99.90;;;;;;5092250;28;20127;-87
2023/05/04 00:52:53;;;;;;;8.07;2.97;;;12.40;99.90;;;;;;5091852;28;19908;-87
2023/05/04 00:55:19;;;;;;;9.85;2.58;;;12.40;99.90;;;;;;5091777;28;20047;-87
2023/05/04 00:57:45;;;;;;;4.03;2.47;;;12.40;99.90;;;;;;5091474;28;20028;-87
2023/05/04 01:00:12;;;;;;;;;;;12.40;99.90;;;;;;5093190;28;20074;-88
2023/05/04 01:02:39;;;;;;;5.05;2.70;;;12.40;99.90;;;;;;5091588;28;19951;-87
2023/05/04 01:05:05;;;;;;;7.57;2.15;;;12.40;99.90;;;;;;5091871;28;20039;-88
2023/05/04 01:07:31;;;;;;;4.15;1.50;;;12.30;99.90;;;;;;5091665;28;20024;-86
2023/05/04 01:10:16;;;;;;;;;;;12.30;99.90;;;;;;5094705;28;20656;-87
2023/05/04 01:13:00;;;;;;;4.70;1.75;;;12.30;99.90;;;;;;5095249;28;19904;-87
2023/05/04 01:15:26;;;;;;;3.88;1.83;;;12.30;99.90;;;;;;5095527;28;20122;-87
2023/05/04 01:17:52;;;;;;;4.43;1.88;;;12.20;99.90;;;;;;5096707;28;20050;-87
2023/05/04 01:20:18;;;;;;;;;;;12.20;99.90;;;;;;5095644;28;20101;-86
2023/05/04 01:22:44;;;;;;;3.25;1.95;;;12.20;99.90;;;;;;5095466;28;20451;-86
2023/05/04 01:25:10;;;;;;;6.53;2.20;;;12.20;99.90;;;;;;5095597;28;20032;-86
2023/05/04 01:27:58;;;;;;;6.63;1.58;;;12.10;99.90;;;;;;5095241;28;20024;-87
2023/05/04 01:30:43;;;;;;;3.00;1.60;;;12.10;99.90;;;;;;5096426;28;20035;-86
2023/05/04 01:33:09;;;;;;;3.72;1.65;;;12.10;99.90;;;;;;5095290;28;20032;-87
2023/05/04 01:35:36;;;;;;;2.47;1.73;;;12.10;99.90;;;;;;5095120;28;20024;-86
2023/05/04 01:38:02;;;;;;;4.80;1.77;;;12.10;99.90;;;;;;5095313;28;20024;-87
2023/05/04 01:40:28;;;;;;;3.30;2.05;;;12.00;99.90;;;;;;5094907;28;20064;-87
2023/05/04 01:42:53;;;;;;;;;;;12.00;99.90;;;;;;5095657;28;20039;-85
2023/05/04 01:45:20;;;;;;;5.35;1.80;;;12.00;99.90;;;;;;5094813;28;19919;-86
2023/05/04 01:47:47;;;;;;;2.47;1.65;;;12.00;99.90;;;;;;5094622;28;20473;-87
2023/05/04 01:50:13;;;;;;;3.20;2.20;;;12.00;99.90;;;;;;5094998;28;20393;-87
2023/05/04 01:52:38;;;;;;;;;;;12.00;99.90;;;;;;5095670;28;20031;-86
2023/05/04 01:55:05;;;;;;;6.88;2.40;;;12.00;99.90;;;;;;5096495;28;20402;-87
2023/05/04 01:57:30;;;;;;;5.07;1.95;;;12.00;99.90;;;;;;5094721;28;20056;-87
2023/05/04 01:59:56;;;;;;;;;;;12.00;99.90;;;;;;5095051;28;20097;-86
2023/05/04 02:02:22;;;;;;;2.88;2.15;;;12.00;99.90;;;;;;5094453;28;20375;-86
2023/05/04 02:04:47;;;;;;;;;;;12.00;99.90;;;;;;5095496;28;20027;-85
2023/05/04 02:07:13;;;;;;;3.25;1.60;;;12.00;99.90;;;;;;5094673;28;20057;-87
2023/05/04 02:09:38;;;;;;;;;;;12.00;99.90;;;;;;5095007;28;20026;-86
2023/05/04 02:12:04;;;;;;;2.95;1.38;;;12.00;99.90;;;;;;5093222;28;20364;-87
2023/05/04 02:14:30;;;;;;;;;;;12.00;99.90;;;;;;5095704;28;20016;-86
2023/05/04 02:16:55;;;;;;;3.75;1.90;;;12.10;99.90;;;;;;5094327;28;19926;-87
2023/05/04 02:19:21;;;;;;;;;;;12.00;99.90;;;;;;5094519;28;20565;-86
2023/05/04 02:21:47;;;;;;;2.63;1.67;;;12.00;99.90;;;;;;5093310;28;19912;-87
2023/05/04 02:24:12;;;;;;;;;;;12.00;99.90;;;;;;5095957;28;20024;-85
2023/05/04 02:26:38;;;;;;;3.42;1.95;;;12.00;99.90;;;;;;5094107;28;19904;-86
2023/05/04 02:29:04;;;;;;;3.85;1.70;;;12.00;99.90;;;;;;5095677;28;20150;-87
2023/05/04 02:31:31;;;;;;;2.10;1.40;;;12.00;99.90;;;;;;5096103;28;20039;-87
2023/05/04 02:33:57;;;;;;;3.88;1.83;;;12.00;99.90;;;;;;5093987;28;20024;-87
2023/05/04 02:36:23;;;;;;;;;;;12.00;99.90;;;;;;5094345;28;20396;-86
2023/05/04 02:38:49;;;;;;;3.25;1.85;;;11.90;99.90;;;;;;5094017;28;19911;-87
2023/05/04 02:41:15;;;;;;;3.67;1.92;;;11.90;99.90;;;;;;5093841;28;20063;-87
2023/05/04 02:43:40;;;;;;;;;;;11.90;99.90;;;;;;5094220;28;20016;-86
2023/05/04 02:46:06;;;;;;;3.20;1.60;;;11.90;99.90;;;;;;5093857;28;19926;-87
2023/05/04 02:48:32;;;;;;;4.00;2.20;;;11.80;99.90;;;;;;5093686;28;20036;-87
2023/05/04 02:50:58;;;;;;;;;;;11.90;99.90;;;;;;5094282;28;20601;-86
2023/05/04 02:53:23;;;;;;;2.55;1.60;;;11.90;99.90;;;;;;5093705;28;19908;-87
2023/05/04 02:55:49;;;;;;;;;;;11.80;99.90;;;;;;5094184;28;20027;-86
2023/05/04 02:58:14;;;;;;;3.42;1.50;;;11.80;99.90;;;;;;5093472;28;19911;-86
2023/05/04 03:00:40;;;;;;;;;;;11.80;99.90;;;;;;5094127;28;20495;-87
2023/05/04 03:03:06;;;;;;;3.92;1.38;;;11.80;99.90;;;;;;5093593;28;19904;-87
2023/05/04 03:05:32;;;;;;;;;;;11.80;99.90;;;;;;5095239;28;20032;-87
2023/05/04 03:07:57;;;;;;;4.00;2.17;;;11.80;99.90;;;;;;5093521;28;19907;-87
2023/05/04 03:10:23;;;;;;;;;;;11.80;99.90;;;;;;5093775;28;20032;-86
2023/05/04 03:12:49;;;;;;;2.53;1.13;;;11.80;99.90;;;;;;5094501;28;19904;-86
2023/05/04 03:15:15;;;;;;;;;;;11.70;99.90;;;;;;5093835;28;20024;-86
2023/05/04 03:17:42;;;;;;;2.45;1.13;;;11.70;99.90;;;;;;5093264;28;20319;-87
2023/05/04 03:20:08;;;;;;;3.03;1.10;;;11.70;99.90;;;;;;5092922;28;20051;-86
2023/05/04 03:22:34;;;;;;;3.50;1.45;;;11.70;99.90;;;;;;5092575;28;20431;-87
2023/05/04 03:24:59;;;;;;;;;;;11.70;99.90;;;;;;5093503;28;20024;-86
2023/05/04 03:27:25;;;;;;;2.00;0.88;;;11.60;99.90;;;;;;5092373;28;20019;-86
2023/05/04 03:29:51;;;;;;;;;;;11.60;99.90;;;;;;5090873;28;20024;-87
2023/05/04 03:32:16;;;;;;;3.38;0.93;;;11.60;99.90;;;;;;5092279;28;20552;-86
2023/05/04 03:34:44;;;;;;;;;;;11.70;99.90;;;;;;5093299;28;20111;-86
2023/05/04 03:37:10;;;;;;;9.55;1.73;;;11.70;99.90;;;;;;5093154;28;19992;-86
2023/05/04 03:39:36;;;;;;;;;;;11.70;99.90;;;;;;5094482;28;20062;-86
2023/05/04 03:42:02;;;;;;;1.92;1.10;;;11.70;99.90;;;;;;5092979;28;19912;-87
2023/05/04 03:44:28;;;;;;;1.58;0.93;;;11.60;99.90;;;;;;5092612;28;20602;-85
2023/05/04 03:46:53;;;;;;;;;;;11.60;99.90;;;;;;5093068;28;20028;-86
2023/05/04 03:49:19;;;;;;;4.65;1.25;;;11.50;99.90;;;;;;5092905;28;19994;-88
2023/05/04 03:51:44;;;;;;;;;;;11.50;99.90;;;;;;5094233;28;20465;-86
2023/05/04 03:54:11;;;;;;;2.20;1.00;;;11.50;99.90;;;;;;5091838;28;19904;-86
2023/05/04 03:56:37;;;;;;;2.72;1.17;;;11.50;99.90;;;;;;5091449;28;20020;-86
2023/05/04 03:59:02;;;;;;;;;;;11.60;99.90;;;;;;5091761;28;20117;-87
2023/05/04 04:01:28;;;;;;;2.75;1.20;;;11.60;99.90;;;;;;5090812;28;19951;-86
2023/05/04 04:03:54;;;;;;;;;;;11.80;99.90;;;;;;5092524;28;20035;-86
2023/05/04 04:06:21;;;;;;;2.47;1.20;;;11.90;99.90;;;;;;5090468;28;20383;-86
2023/05/04 04:08:46;;;;;;;2.38;1.20;;;12.20;99.90;;;;;;5092167;28;20016;-87
2023/05/04 04:11:12;;;;;;;;;;;12.40;99.90;;;;;;5093016;28;20484;-86
2023/05/04 04:13:38;;;;;;;2.33;0.90;;;12.60;99.90;;;;;;5092049;28;19908;-87
2023/05/04 04:16:03;;;;;;;;;;;12.80;99.90;;;;;;5092413;28;20492;-87
2023/05/04 04:18:29;;;;;;;1.80;1.10;;;13.00;99.90;;;;;;5091746;28;19930;-87
2023/05/04 04:20:55;;;;;;;;;;;13.10;99.90;;;;;;5092031;28;20123;-87
2023/05/04 04:23:20;;;;;;;1.65;0.98;;;13.20;99.90;;;;;;5093422;28;19990;-87
2023/05/04 04:25:46;;;;;;;;;;;13.30;99.90;;;;;;5092239;28;20028;-87
2023/05/04 04:28:13;;;;;;;1.67;1.08;;;13.50;99.90;;;;;;5092290;28;19908;-87
2023/05/04 04:30:39;;;;;;;2.25;1.00;;;13.70;99.90;;;;;;5091918;28;20070;-87
2023/05/04 04:33:05;;;;;;;5.32;1.30;;;13.90;99.90;;;;;;5091904;28;20027;-87
2023/05/04 04:35:33;;;;;;;;;;;13.90;99.90;;;;;;5092384;28;20028;-87
2023/05/04 04:37:59;;;;;;;3.92;1.10;;;14.10;99.90;;;;;;5092024;28;19904;-87
2023/05/04 04:40:25;;;;;;;;;;;14.20;99.90;;;;;;5091910;28;20038;-86
2023/05/04 04:42:51;;;;;;;1.50;0.80;;;14.50;99.90;;;;;;5089705;28;20433;-86
2023/05/04 04:45:17;;;;;;;1.90;1.00;;;14.60;99.90;;;;;;5091344;28;20119;-86
2023/05/04 04:47:43;;;;;;;3.40;1.05;;;14.80;99.90;;;;;;5089455;28;20025;-86
2023/05/04 04:50:10;;;;;;;2.03;0.93;;;14.90;99.90;;;;;;5091336;28;20020;-86
2023/05/04 04:52:36;;;;;;;4.20;1.08;;;15.00;99.90;;;;;;5091134;28;20036;-87
2023/05/04 04:55:03;;;;;;;5.60;1.20;;;15.10;99.90;;;;;;5090505;28;20024;-86
2023/05/04 04:57:29;;;;;;;2.08;1.20;;;15.30;99.90;;;;;;5090112;28;20107;-87
2023/05/04 04:59:55;;;;;;;4.43;1.48;;;15.50;99.90;;;;;;5089930;28;20140;-86
2023/05/04 05:02:22;;;;;;;4.30;1.02;;;15.60;99.70;;;;;;5092522;28;20024;-86
2023/05/04 05:04:48;;;;;;;1.98;1.02;;;15.80;99.60;;;;;;5089828;28;20024;-85
2023/05/04 05:07:14;;;;;;;2.83;0.95;;;15.90;99.90;;;;;;5091305;28;20086;-88
2023/05/04 05:09:40;;;;;;;3.03;0.77;;;16.00;99.90;;;;;;5089959;28;20046;-87
2023/05/04 05:12:06;;;;;;;4.28;0.80;;;16.20;99.90;;;;;;5091604;28;20024;-86
2023/05/04 05:14:31;;;;;;;3.05;1.10;;;16.40;99.90;;;;;;5089591;28;20020;-85
2023/05/04 05:16:58;;;;;;;4.35;1.35;;;16.70;99.90;;;;;;5091179;28;20020;-88
2023/05/04 05:19:24;;;;;;;1.77;0.73;;;16.80;98.50;;;;;;5091636;28;20044;-88
2023/05/04 05:21:51;;;;;;;1.63;1.00;;;17.10;98.90;;;;;;5089778;28;20102;-87
2023/05/04 05:24:16;;;;;;;3.20;1.50;;;17.40;99.30;;;;;;5089631;28;20024;-87
2023/05/04 05:26:42;;;;;;;3.97;1.63;;;17.40;97.40;;;;;;5091329;28;20024;-87
2023/05/04 05:29:08;;;;;;;5.47;2.38;;;17.50;97.20;;;;;;5091313;28;20020;-87
2023/05/04 05:31:34;;;;;;;4.97;1.80;;;17.70;96.30;;;;;;5091645;28;20082;-88
2023/05/04 05:33:59;;;;;;;4.28;2.55;;;17.80;95.20;;;;;;5091631;28;20541;-88
2023/05/04 05:36:26;;;;;;;5.55;2.25;;;18.10;92.20;;;;;;5091365;28;20029;-87
2023/05/04 05:38:51;;;;;;;10.38;2.17;;;18.40;93.10;;;;;;5091352;28;20032;-88
2023/05/04 05:41:17;;;;;;;5.68;1.30;;;18.90;89.80;;;;;;5089968;28;20073;-88
2023/05/04 05:43:43;;;;;;;3.50;1.42;;;19.10;84.20;;;;;;5093897;28;20024;-88
2023/05/04 05:46:09;;;;;;;7.65;1.55;;;19.60;81.90;;;;;;5090738;28;20115;-88
2023/05/04 05:48:34;;;;;;;3.28;1.55;;;20.20;77.30;;;;;;5091459;28;20043;-88
2023/05/04 05:51:00;;;;;;;4.60;1.15;;;21.20;70.20;;;;;;5088910;28;20020;-86
2023/05/04 05:53:26;;;;;;;6.82;1.65;;;22.00;64.60;;;;;;5089385;28;20028;-86
2023/05/04 05:55:51;;;;;;;7.70;1.33;;;22.40;61.90;;;;;;5090443;28;20047;-86
2023/05/04 05:58:17;;;;;;;2.30;1.38;;;23.10;60.90;;;;;;5095566;28;20032;-85
2023/05/04 06:00:43;;;;;;;3.38;1.33;;;23.90;58.60;;;;;;5092328;28;20114;-86
2023/05/04 06:03:08;;;;;;;5.60;1.70;;;24.60;56.10;;;;;;5092240;28;20032;-87
2023/05/04 06:05:34;;;;;;;3.30;1.30;;;25.20;54.20;;;;;;5092488;28;20034;-87
2023/05/04 06:08:00;;;;;;;6.88;1.50;;;25.60;52.10;;;;;;5094746;28;20034;-87
2023/05/04 06:10:25;;;;;;;6.25;1.75;;;25.00;51.50;;;;;;5092562;28;20039;-86
2023/05/04 06:12:51;;;;;;;3.50;1.42;;;24.00;53.30;;;;;;5092565;28;20046;-84
2023/05/04 06:15:17;;;;;;;3.80;2.00;;;23.20;55.90;;;;;;5092332;28;20501;-87
2023/05/04 06:17:43;;;;;;;2.58;1.17;;;22.50;57.60;;;;;;5094444;28;20048;-86
2023/05/04 06:20:08;;;;;;;9.38;1.60;;;22.40;59.50;;;;;;5091637;28;20052;-86
2023/05/04 06:22:34;;;;;;;3.08;1.95;;;22.90;59.30;;;;;;5092696;28;20500;-87
2023/05/04 06:25:00;;;;;;;4.93;1.75;;;23.20;57.00;;;;;;5094187;28;20024;-87
2023/05/04 06:27:27;;;;;;;3.13;1.85;;;23.20;58.00;;;;;;5092693;28;20096;-87
2023/05/04 06:29:53;;;;;;;4.43;1.90;;;24.00;56.30;;;;;;5092726;28;20048;-87
2023/05/04 06:32:19;;;;;;;6.85;2.00;;;24.30;55.00;;;;;;5093583;28;20052;-86
2023/05/04 06:34:44;;;;;;;2.75;1.30;;;24.50;54.20;;;;;;5092629;28;20416;-87
2023/05/04 06:37:10;;;;;;;6.88;1.65;;;24.90;52.90;;;;;;5093846;28;20385;-87
2023/05/04 06:39:36;;;;;;;4.40;1.17;;;25.40;50.60;;;;;;5091251;28;20036;-87
2023/05/04 06:42:02;;;;;;;2.90;1.50;;;25.80;49.60;;;;;;5092471;28;20129;-87
2023/05/04 06:44:28;;;;;;;3.80;1.77;;;26.40;47.60;;;;;;5093878;28;20556;-87
2023/05/04 06:46:54;;;;;;;6.22;1.35;;;26.50;46.10;;;;;;5091755;28;20069;-86
2023/05/04 06:49:19;;;;;;;10.65;3.30;;;25.90;45.40;;;;;;5092214;28;20119;-86
2023/05/04 06:51:45;;;;;;;7.55;1.92;;;25.40;47.00;;;;;;5091267;28;20036;-85
2023/05/04 06:54:11;;;;;;;3.58;1.33;;;25.10;47.40;;;;;;5092106;28;20069;-88
2023/05/04 06:56:38;;;;;;;2.95;1.40;;;25.10;47.30;;;;;;5093606;28;20024;-87
2023/05/04 06:59:04;;;;;;;4.72;1.75;;;24.80;45.10;;;;;;5093437;28;20435;-86
2023/05/04 07:01:30;;;;;;;3.40;1.55;;;24.50;47.10;;;;;;5092225;28;20048;-87
2023/05/04 07:03:57;;;;;;;9.35;2.08;;;24.20;48.20;;;;;;5093228;28;20055;-84
2023/05/04 07:06:25;;;;;;;6.40;1.40;;;24.00;49.10;;;;;;5090756;28;20503;-87
2023/05/04 07:08:51;;;;;;;6.15;2.10;;;23.70;48.60;;;;;;5092846;28;20035;-87
2023/05/04 07:11:17;;;;;;;5.05;2.33;;;23.50;49.30;;;;;;5093394;28;20397;-86
2023/05/04 07:13:43;;;;;;;6.25;2.70;;;23.30;48.70;;;;;;5093542;28;20024;-87
2023/05/04 07:16:08;;;;;;;3.88;1.50;;;23.00;49.50;;;;;;5094408;28;20058;-86
2023/05/04 07:18:34;;;;;;;6.18;1.02;;;22.70;49.50;;;;;;5092080;28;20092;-85
2023/05/04 07:21:00;;;;;;;1.58;0.90;;;22.50;50.20;;;;;;5091649;28;20528;-86
2023/05/04 07:23:27;;;;;;;2.95;1.00;;;22.30;51.10;;;;;;5090590;28;20107;-87
2023/05/04 07:25:52;;;;;;;1.65;0.98;;;22.10;52.60;;;;;;5091632;28;20508;-86
2023/05/04 07:28:18;;;;;;;3.33;1.00;;;22.10;51.70;;;;;;5090572;28;20030;-86
2023/05/04 07:30:44;;;;;;;4.90;1.20;;;22.00;52.40;;;;;;5090736;28;20028;-85
2023/05/04 07:33:10;;;;;;;2.28;0.98;;;22.00;53.00;;;;;;5090763;28;20027;-85
2023/05/04 07:35:35;;;;;;;3.17;1.15;;;22.00;52.80;;;;;;5091602;28;20110;-87
2023/05/04 07:38:01;;;;;;;2.33;1.00;;;22.00;52.90;;;;;;5090418;28;20031;-86
2023/05/04 07:40:27;;;;;;;2.90;1.10;;;21.80;53.60;;;;;;5090756;28;20052;-85
2023/05/04 07:42:53;;;;;;;2.05;1.20;;;21.90;54.10;;;;;;5095488;28;20032;-85
2023/05/04 07:45:18;;;;;;;3.28;1.00;;;22.00;53.90;;;;;;5090446;28;20110;-85
2023/05/04 07:47:44;;;;;;;2.30;1.02;;;22.20;54.00;;;;;;5090145;28;20491;-87
2023/05/04 07:50:11;;;;;;;3.70;1.13;;;22.70;53.60;;;;;;5091443;28;20020;-87
2023/05/04 07:52:37;;;;;;;4.85;1.38;;;23.40;52.10;;;;;;5090879;28;20028;-86
2023/05/04 07:55:03;;;;;;;2.00;1.27;;;24.40;50.20;;;;;;5091190;28;20491;-87
2023/05/04 07:57:28;;;;;;;1.73;1.30;;;25.40;48.20;;;;;;5090003;28;20055;-86
2023/05/04 07:59:54;;;;;;;2.17;1.02;;;26.40;45.50;;;;;;5090301;28;20488;-87
2023/05/04 08:02:21;;;;;;;6.95;1.50;;;27.00;44.00;;;;;;5091798;28;20043;-87
2023/05/04 08:04:47;;;;;;;10.43;2.65;;;28.10;40.00;;;;;;5090727;28;20028;-87
2023/05/04 08:07:15;;;;;;;5.90;1.40;;;28.00;39.50;;;;;;5090369;28;20035;-87
2023/05/04 08:09:41;;;;;;;1.92;1.08;;;28.50;37.10;;;;;;5090523;28;20529;-88
2023/05/04 08:12:06;;;;;;;6.22;0.90;;;28.40;37.70;;;;;;5089618;28;20059;-88
2023/05/04 08:14:32;;;;;;;3.40;1.40;;;28.80;37.30;;;;;;5089677;28;20504;-87
2023/05/04 08:16:59;;;;;;;4.32;1.52;;;28.80;38.20;;;;;;5090201;28;20763;-87
2023/05/04 08:19:25;;;;;;;2.65;1.50;;;28.80;35.80;;;;;;5088605;28;20104;-87
2023/05/04 08:21:51;;;;;;;1.75;0.80;;;28.80;35.10;;;;;;5091367;28;20123;-87
2023/05/04 08:24:17;;;;;;;3.70;1.30;;;28.90;34.30;;;;;;5090592;28;20028;-85
2023/05/04 08:26:43;;;;;;;2.47;1.23;;;29.30;35.20;;;;;;5089101;28;20416;-88
2023/05/04 08:29:12;;;;;;;3.97;1.75;;;29.70;34.80;;;;;;5090417;28;20024;-87
2023/05/04 08:31:39;;;;;;;2.15;1.20;;;29.90;35.00;;;;;;5090632;28;20032;-87
2023/05/04 08:34:05;;;;;;;2.25;1.08;;;30.10;32.30;;;;;;5089710;28;20034;-86
2023/05/04 08:36:31;;;;;;;8.05;1.90;;;29.50;32.50;;;;;;5089316;28;20032;-87
2023/05/04 08:38:56;;;;;;;3.55;1.13;;;29.00;32.30;;;;;;5089663;28;20472;-88
2023/05/04 08:41:22;;;;;;;2.65;1.40;;;28.80;33.20;;;;;;5089486;28;20571;-87
2023/05/04 08:43:49;;;;;;;2.55;1.40;;;28.60;33.50;;;;;;5090643;28;20024;-86
2023/05/04 08:46:16;;;;;;;3.65;1.38;;;28.50;33.00;;;;;;5091192;28;20028;-87
2023/05/04 08:48:43;;;;;;;1.80;1.25;;;28.10;32.20;;;;;;5091408;28;20024;-87
2023/05/04 08:51:10;;;;;;;3.40;1.20;;;27.50;34.00;;;;;;5089959;28;20587;-88
2023/05/04 08:53:39;;;;;;;2.47;1.38;;;26.80;35.20;;;;;;5090968;28;20129;-86
2023/05/04 08:56:12;;;;;;;7.97;1.42;;;26.30;35.30;;;;;;5089364;28;20492;-86
2023/05/04 08:58:50;;;;;;;3.03;1.55;;;25.90;37.30;;;;;;5090194;28;20032;-86
2023/05/04 09:01:17;;;;;;;2.88;0.93;;;25.70;38.00;;;;;;5090051;28;20036;-86
2023/05/04 09:03:44;;;;;;;11.20;1.63;;;25.50;37.90;;;;;;5089085;28;20024;-85
2023/05/04 09:06:11;;;;;;;5.15;1.52;;;25.40;38.40;;;;;;5089258;28;20035;-86
2023/05/04 09:08:37;;;;;;;2.92;1.10;;;25.10;38.60;;;;;;5088841;28;20119;-86
2023/05/04 09:11:03;;;;;;;8.82;1.20;;;24.70;39.40;;;;;;5091770;28;20126;-86
2023/05/04 09:13:29;;;;;;;9.65;1.75;;;24.40;39.70;;;;;;5090246;28;20020;-86
2023/05/04 09:15:58;;;;;;;5.22;2.03;;;24.10;39.90;;;;;;5089559;28;20031;-85
2023/05/04 09:18:36;;;;;;;4.50;1.20;;;23.80;40.30;;;;;;5091506;28;20540;-85
2023/05/04 09:21:03;;;;;;;2.55;1.30;;;23.80;41.10;;;;;;5088554;28;20036;-84
2023/05/04 09:23:29;;;;;;;9.20;1.17;;;23.60;42.70;;;;;;5089240;28;20032;-85
2023/05/04 09:25:55;;;;;;;6.18;1.35;;;23.50;42.50;;;;;;5091730;28;20029;-86
2023/05/04 09:28:37;;;;;;;5.97;3.65;;;23.40;44.00;;;;;;5092531;28;20040;-87
2023/05/04 09:31:03;;;;;;;4.15;1.60;;;23.40;42.70;;;;;;5093474;28;20466;-86
2023/05/04 09:33:28;;;;;;;3.92;1.60;;;23.20;43.10;;;;;;5092781;28;20119;-86
2023/05/04 09:35:56;;;;;;;5.53;1.20;;;23.20;44.50;;;;;;5093241;28;20032;-86
2023/05/04 09:38:31;;;;;;;4.72;1.70;;;23.30;44.50;;;;;;5095285;28;20035;-84
2023/05/04 09:40:57;;;;;;;7.22;2.03;;;23.50;43.40;;;;;;5094442;28;20034;-86
2023/05/04 09:43:25;;;;;;;3.00;1.45;;;23.50;42.70;;;;;;5094586;28;20028;-84
2023/05/04 09:45:52;;;;;;;5.63;1.88;;;23.50;44.40;;;;;;5093901;28;20024;-86
2023/05/04 09:48:25;;;;;;;3.95;1.40;;;23.80;44.50;;;;;;5095891;28;20028;-85
2023/05/04 09:50:58;;;;;;;1.65;0.90;;;23.90;42.60;;;;;;5092277;28;20461;-85
2023/05/04 09:53:25;;;;;;;3.95;1.55;;;24.10;43.20;;;;;;5092678;28;20031;-86
2023/05/04 09:56:10;;;;;;;6.18;1.17;;;24.10;43.20;;;;;;5094119;28;20032;-86
2023/05/04 09:58:36;;;;;;;1.92;1.08;;;24.20;42.60;;;;;;5094070;28;20016;-85
2023/05/04 10:01:03;;;;;;;5.80;1.00;;;24.10;42.90;;;;;;5092652;28;20047;-85
2023/05/04 10:03:29;;;;;;;1.83;1.15;;;24.10;42.90;;;;;;5093414;28;20050;-87
2023/05/04 10:05:56;;;;;;;3.38;1.75;;;24.00;42.10;;;;;;5094952;28;20031;-86
2023/05/04 10:08:22;;;;;;;2.92;1.48;;;24.00;42.20;;;;;;5093232;28;20043;-86
2023/05/04 10:10:48;;;;;;;3.13;1.10;;;23.90;42.80;;;;;;5092665;28;20492;-84
2023/05/04 10:13:16;;;;;;;2.53;1.27;;;24.00;43.90;;;;;;5093799;28;20024;-86
2023/05/04 10:16:07;;;;;;;3.15;1.00;;;23.90;43.10;;;;;;5095844;28;20062;-86
2023/05/04 10:19:01;;;;;;;5.57;1.38;;;23.90;44.30;;;;;;5092884;28;20476;-87
2023/05/04 10:21:48;;;;;;;5.18;1.00;;;24.00;43.00;;;;;;5093540;28;20051;-86
2023/05/04 10:24:34;;;;;;;1.73;0.98;;;24.00;44.30;;;;;;5092483;28;20057;-86
2023/05/04 10:27:18;;;;;;;3.08;1.33;;;24.20;43.60;;;;;;5092340;28;20031;-86
2023/05/04 10:29:50;;;;;;;2.85;1.50;;;24.20;43.30;;;;;;5093812;28;20055;-87
2023/05/04 10:32:22;;;;;;;11.10;1.30;;;24.20;41.90;;;;;;5091380;28;20028;-86
2023/05/04 10:34:48;;;;;;;2.55;1.08;;;24.10;42.50;;;;;;5092783;28;20027;-85
2023/05/04 10:37:18;;;;;;;7.68;1.60;;;24.10;43.40;;;;;;5091322;28;20507;-85
2023/05/04 10:39:52;;;;;;;4.00;0.80;;;24.20;42.60;;;;;;5092546;28;20127;-86
2023/05/04 10:42:18;;;;;;;2.65;1.05;;;24.40;42.00;;;;;;5090207;28;20047;-85
2023/05/04 10:44:55;;;;;;;4.00;1.80;;;24.40;42.50;;;;;;5092016;28;20070;-85
2023/05/04 10:47:31;;;;;;;2.92;1.10;;;24.60;42.70;;;;;;5092062;28;20031;-87
2023/05/04 10:50:13;;;;;;;4.78;1.40;;;24.70;42.60;;;;;;5093808;28;20058;-85
2023/05/04 10:52:50;;;;;;;3.25;1.27;;;24.70;41.90;;;;;;5092153;28;20108;-85
2023/05/04 10:55:17;;;;;;;6.00;1.30;;;24.80;41.30;;;;;;5093317;28;20020;-86
2023/05/04 10:57:49;;;;;;;1.63;0.77;;;24.70;41.70;;;;;;5093449;28;20020;-86
2023/05/04 11:00:17;;;;;;;6.85;1.05;;;24.60;42.10;;;;;;5093296;28;20085;-86
2023/05/04 11:02:43;;;;;;;1.88;1.05;;;24.60;42.80;;;;;;5092434;28;20115;-86
2023/05/04 11:05:14;;;;;;;3.60;1.35;;;24.60;42.00;;;;;;5091814;28;20576;-85
2023/05/04 11:07:40;;;;;;;4.03;1.20;;;24.50;43.00;;;;;;5091278;28;20031;-86
2023/05/04 11:10:18;;;;;;;6.53;1.90;;;24.50;42.40;;;;;;5091206;28;20202;-84
2023/05/04 11:12:44;;;;;;;2.00;0.80;;;24.50;44.20;;;;;;5091002;28;20105;-84
2023/05/04 11:15:10;;;;;;;2.10;1.00;;;24.60;41.70;;;;;;5090922;28;20040;-86
2023/05/04 11:17:46;;;;;;;2.58;1.10;;;24.60;42.60;;;;;;5091406;28;20031;-85
2023/05/04 11:20:22;;;;;;;3.42;1.13;;;24.40;43.70;;;;;;5090346;28;20048;-85
2023/05/04 11:22:49;;;;;;;2.50;1.25;;;24.50;43.60;;;;;;5090639;28;20057;-85
2023/05/04 11:25:16;;;;;;;6.18;1.00;;;24.40;43.70;;;;;;5090488;28;20036;-86
2023/05/04 11:27:42;;;;;;;2.47;1.17;;;24.10;43.60;;;;;;5090400;28;20023;-84
2023/05/04 11:30:08;;;;;;;2.97;1.15;;;23.90;43.70;;;;;;5091861;28;20028;-86
2023/05/04 11:32:36;;;;;;;2.10;1.05;;;23.80;43.50;;;;;;5089887;28;20032;-85
2023/05/04 11:35:04;;;;;;;8.82;1.40;;;23.70;45.50;;;;;;5091583;28;20020;-85
2023/05/04 11:37:36;;;;;;;5.00;1.00;;;23.50;43.30;;;;;;5093503;28;20031;-86
2023/05/04 11:40:12;;;;;;;5.20;1.33;;;23.40;45.30;;;;;;5090401;28;20511;-84
2023/05/04 11:42:41;;;;;;;2.95;1.00;;;23.60;46.40;;;;;;5090750;28;20036;-86
2023/05/04 11:45:21;;;;;;;2.22;1.40;;;23.70;46.20;;;;;;5091255;28;20051;-85
2023/05/04 11:47:48;;;;;;;7.10;1.63;;;23.70;45.70;;;;;;5090531;28;20120;-84
2023/05/04 11:50:15;;;;;;;5.07;1.40;;;23.70;47.40;;;;;;5091210;28;20449;-85
2023/05/04 11:52:42;;;;;;;4.22;1.20;;;23.70;46.90;;;;;;5091595;28;20517;-85
2023/05/04 11:55:09;;;;;;;2.20;1.27;;;23.60;44.40;;;;;;5092554;28;20020;-86
2023/05/04 11:57:38;;;;;;;3.33;1.30;;;23.40;44.80;;;;;;5091998;28;20512;-86
2023/05/04 12:00:08;;;;;;;4.93;1.30;;;23.00;45.00;;;;;;5091364;28;20024;-85
2023/05/04 12:02:34;;;;;;;2.25;1.38;;;22.70;47.20;;;;;;5091832;28;20038;-85
2023/05/04 12:05:00;;;;;;;9.68;1.88;;;22.70;48.20;;;;;;5089962;28;20028;-85
2023/05/04 12:07:27;;;;;;;3.70;1.60;;;23.00;47.80;;;;;;5090425;28;20070;-84
2023/05/04 12:09:53;;;;;;;3.22;1.23;;;22.90;46.60;;;;;;5090616;28;20016;-85
2023/05/04 12:12:20;;;;;;;7.35;1.90;;;22.80;45.80;;;;;;5092401;28;20016;-86
2023/05/04 12:14:50;;;;;;;5.97;1.23;;;22.50;46.10;;;;;;5092427;28;20028;-86
2023/05/04 12:17:17;;;;;;;2.70;1.15;;;22.40;47.10;;;;;;5092187;28;20107;-86
2023/05/04 12:19:49;;;;;;;2.97;1.50;;;22.30;47.60;;;;;;5092653;28;20142;-86
2023/05/04 12:22:16;;;;;;;8.18;1.52;;;22.30;48.10;;;;;;5092032;28;20043;-85
2023/05/04 12:24:43;;;;;;;5.15;1.55;;;22.30;48.80;;;;;;5092264;28;20512;-85
2023/05/04 12:27:13;;;;;;;6.45;1.65;;;22.40;48.20;;;;;;5092399;28;20024;-86
2023/05/04 12:29:40;;;;;;;8.07;1.20;;;22.50;48.30;;;;;;5092467;28;20102;-86
2023/05/04 12:32:05;;;;;;;4.05;1.38;;;22.50;47.30;;;;;;5090889;28;20089;-85
2023/05/04 12:34:31;;;;;;;4.28;1.52;;;22.50;48.00;;;;;;5089816;28;20500;-86
2023/05/04 12:36:57;;;;;;;3.22;1.50;;;22.60;48.50;;;;;;5089139;28;20488;-86
2023/05/04 12:39:23;;;;;;;6.57;1.38;;;22.70;48.30;;;;;;5091741;28;20059;-86
2023/05/04 12:41:49;;;;;;;2.58;1.30;;;22.90;49.20;;;;;;5090630;28;20035;-85
2023/05/04 12:44:15;;;;;;;3.47;1.40;;;23.00;46.70;;;;;;5092692;28;20073;-85
2023/05/04 12:46:42;;;;;;;3.08;1.10;;;22.80;49.00;;;;;;5089916;28;20039;-84
2023/05/04 12:49:09;;;;;;;2.97;1.92;;;23.10;50.00;;;;;;5089490;28;20020;-84
2023/05/04 12:51:35;;;;;;;2.22;1.20;;;23.50;50.10;;;;;;5089178;28;20492;-85
2023/05/04 12:54:01;;;;;;;2.15;0.98;;;23.80;48.40;;;;;;5089491;28;20028;-86
2023/05/04 12:56:27;;;;;;;5.43;1.10;;;23.80;47.50;;;;;;5090236;28;20066;-84
2023/05/04 12:58:52;;;;;;;3.58;1.60;;;23.70;45.90;;;;;;5090673;28;20020;-87